Time;durP1;ratioP1;P1;durP2;ratioP2;P2;SDS_P1;SDS_P2;PMS_P1;PMS_P2;Temp;Humidity;BMP_temperature;BMP_pressure;BME280_temperature;BME280_humidity;BME280_pressure;Samples;Min_cycle;Max_cycle;Signal;HPM_P1;HPM_P2
2022/01/31 00:00:48;;;;;;;47.22;8.20;;;2.00;99.90;;;;;;4292855;28;9999979;-72
2022/01/31 00:03:13;;;;;;;35.95;7.47;;;2.00;99.90;;;;;;4981889;28;20018;-72
2022/01/31 00:05:39;;;;;;;35.35;7.55;;;2.00;99.90;;;;;;4986706;28;20066;-71
2022/01/31 00:08:05;;;;;;;31.05;6.72;;;2.00;99.90;;;;;;4976880;28;20022;-72
2022/01/31 00:10:31;;;;;;;36.10;7.53;;;1.90;99.90;;;;;;4986209;28;20696;-72
2022/01/31 00:13:06;;;;;;;40.38;8.00;;;1.90;99.90;;;;;;4984793;28;20512;-72
2022/01/31 00:15:36;;;;;;;38.67;7.40;;;1.90;99.90;;;;;;4976493;28;20027;-71
2022/01/31 00:18:02;;;;;;;43.17;7.10;;;1.90;99.90;;;;;;4972325;28;20058;-72
2022/01/31 00:20:28;;;;;;;34.28;7.20;;;1.90;99.90;;;;;;4980256;28;20436;-72
2022/01/31 00:22:54;;;;;;;36.33;7.47;;;1.90;99.90;;;;;;4989123;28;20030;-72
2022/01/31 00:25:19;;;;;;;45.30;8.40;;;1.90;99.90;;;;;;4982296;28;20035;-72
2022/01/31 00:27:47;;;;;;;34.33;7.00;;;1.90;99.90;;;;;;4977480;28;20113;-72
2022/01/31 00:30:13;;;;;;;43.78;8.48;;;1.90;99.90;;;;;;4983803;28;20165;-72
2022/01/31 00:32:38;;;;;;;37.35;7.28;;;1.90;99.90;;;;;;4984637;28;20126;-71
2022/01/31 00:35:05;;;;;;;33.63;7.15;;;1.90;99.90;;;;;;4984559;28;20114;-72
2022/01/31 00:37:31;;;;;;;38.53;7.15;;;1.80;99.90;;;;;;4986655;28;20084;-72
2022/01/31 00:39:56;;;;;;;31.13;7.55;;;1.90;99.90;;;;;;4983924;28;20038;-71
2022/01/31 00:42:24;;;;;;;39.80;7.95;;;1.90;99.90;;;;;;4981732;28;20117;-72
2022/01/31 00:44:53;;;;;;;43.20;7.00;;;1.90;99.90;;;;;;4988931;28;20038;-72
2022/01/31 00:47:24;;;;;;;32.72;7.22;;;1.90;99.90;;;;;;4978283;28;20046;-72
2022/01/31 00:49:53;;;;;;;37.78;7.82;;;1.90;99.90;;;;;;4986555;28;20038;-73
2022/01/31 00:52:19;;;;;;;33.10;7.35;;;1.90;99.90;;;;;;4981825;28;20049;-71
2022/01/31 00:54:46;;;;;;;39.25;7.75;;;1.90;99.90;;;;;;4985572;28;20034;-72
2022/01/31 00:57:12;;;;;;;39.50;7.07;;;1.80;99.90;;;;;;4984587;28;20096;-71
2022/01/31 00:59:37;;;;;;;41.47;7.82;;;1.80;99.90;;;;;;4980085;28;20035;-72
2022/01/31 01:02:03;;;;;;;36.80;8.10;;;1.80;99.90;;;;;;4976125;28;20031;-72
2022/01/31 01:04:29;;;;;;;33.55;7.78;;;1.80;99.90;;;;;;4983047;28;20038;-71
2022/01/31 01:06:54;;;;;;;34.35;7.53;;;1.80;99.90;;;;;;4980852;28;20097;-71
2022/01/31 01:09:20;;;;;;;42.53;7.40;;;1.80;99.90;;;;;;4977831;28;20058;-71
2022/01/31 01:11:46;;;;;;;38.78;8.63;;;1.80;99.90;;;;;;4978646;28;20106;-71
2022/01/31 01:14:12;;;;;;;36.67;6.88;;;1.80;99.90;;;;;;4980012;28;20121;-71
2022/01/31 01:16:37;;;;;;;35.28;8.15;;;1.80;99.90;;;;;;4981115;28;20038;-72
2022/01/31 01:19:04;;;;;;;30.42;7.75;;;1.80;99.90;;;;;;4980553;28;20042;-71
2022/01/31 01:21:30;;;;;;;32.00;6.57;;;1.80;99.90;;;;;;4982601;28;20125;-72
2022/01/31 01:23:56;;;;;;;33.97;6.97;;;1.90;99.90;;;;;;4983888;28;20105;-71
2022/01/31 01:26:21;;;;;;;26.02;6.07;;;1.90;99.90;;;;;;4980172;28;20117;-72
2022/01/31 01:28:47;;;;;;;28.23;6.28;;;1.90;99.90;;;;;;4984280;28;20037;-72
2022/01/31 01:31:13;;;;;;;25.52;6.10;;;1.90;99.90;;;;;;4960648;28;20495;-72
2022/01/31 01:33:40;;;;;;;31.88;6.55;;;1.90;99.90;;;;;;4961442;28;20601;-72
2022/01/31 01:36:07;;;;;;;39.47;7.30;;;2.00;99.90;;;;;;4964099;28;20047;-72
2022/01/31 01:38:34;;;;;;;30.40;6.22;;;2.00;99.90;;;;;;4961025;28;20148;-72
2022/01/31 01:41:00;;;;;;;30.98;6.80;;;2.00;99.90;;;;;;4963896;28;20073;-72
2022/01/31 01:43:27;;;;;;;32.63;7.25;;;2.00;99.90;;;;;;4960433;28;20054;-71
2022/01/31 01:45:54;;;;;;;36.03;7.10;;;2.00;99.90;;;;;;4966887;28;20034;-72
2022/01/31 01:48:20;;;;;;;35.47;7.50;;;1.90;99.90;;;;;;4962893;28;20050;-72
2022/01/31 01:50:47;;;;;;;29.25;7.03;;;2.00;99.90;;;;;;4956938;28;20279;-71
2022/01/31 01:53:14;;;;;;;36.70;7.13;;;2.00;99.90;;;;;;4965284;28;20029;-72
2022/01/31 01:55:42;;;;;;;25.25;6.43;;;2.10;99.90;;;;;;4959291;28;20395;-72
2022/01/31 01:58:14;;;;;;;40.83;6.72;;;2.10;99.90;;;;;;4961918;28;20062;-72
2022/01/31 02:00:49;;;;;;;29.48;6.25;;;2.10;99.90;;;;;;4966059;28;20053;-73
2022/01/31 02:03:16;;;;;;;31.17;6.63;;;2.10;99.90;;;;;;4957681;28;20463;-71
2022/01/31 02:05:41;;;;;;;30.15;6.40;;;2.10;99.90;;;;;;4957336;28;20031;-72
2022/01/31 02:08:08;;;;;;;29.40;6.72;;;2.10;99.90;;;;;;4955058;28;20035;-72
2022/01/31 02:10:34;;;;;;;32.40;5.93;;;2.00;99.90;;;;;;4963058;28;20042;-72
2022/01/31 02:13:05;;;;;;;29.10;6.80;;;2.10;99.90;;;;;;4963250;28;20621;-72
2022/01/31 02:15:30;;;;;;;29.92;7.20;;;2.10;99.90;;;;;;4967872;28;20038;-72
2022/01/31 02:17:56;;;;;;;31.55;6.88;;;2.00;99.90;;;;;;4959844;28;20085;-71
2022/01/31 02:20:22;;;;;;;36.10;6.40;;;2.00;99.90;;;;;;4962837;28;20041;-71
2022/01/31 02:22:49;;;;;;;32.80;6.45;;;2.00;99.90;;;;;;4960018;28;20027;-72
2022/01/31 02:25:14;;;;;;;30.42;6.40;;;2.00;99.90;;;;;;4953584;28;20097;-72
2022/01/31 02:27:40;;;;;;;25.02;6.25;;;2.00;99.90;;;;;;4957759;28;20039;-70
2022/01/31 02:30:09;;;;;;;37.33;6.80;;;2.00;99.90;;;;;;4973940;28;20101;-70
2022/01/31 02:32:35;;;;;;;30.13;6.03;;;2.00;99.90;;;;;;4979138;28;20026;-70
2022/01/31 02:35:01;;;;;;;29.20;5.93;;;2.00;99.90;;;;;;4972498;28;20514;-70
2022/01/31 02:37:27;;;;;;;27.75;6.68;;;2.00;99.90;;;;;;4981032;28;20548;-70
2022/01/31 02:39:53;;;;;;;28.92;5.95;;;2.00;99.90;;;;;;4982739;28;20042;-70
2022/01/31 02:42:18;;;;;;;23.40;6.13;;;2.00;99.90;;;;;;4978141;28;20034;-73
2022/01/31 02:44:45;;;;;;;31.55;7.00;;;2.00;99.90;;;;;;4986073;28;20430;-70
2022/01/31 02:47:25;;;;;;;21.45;5.75;;;2.00;99.90;;;;;;4977315;28;20053;-71
2022/01/31 02:50:01;;;;;;;20.08;6.18;;;2.00;99.90;;;;;;4984244;28;20026;-71
2022/01/31 02:52:31;;;;;;;26.27;5.97;;;2.10;99.90;;;;;;4981911;28;20034;-70
2022/01/31 02:54:57;;;;;;;24.83;6.13;;;2.10;99.90;;;;;;4984425;28;20038;-71
2022/01/31 02:57:23;;;;;;;25.05;5.90;;;2.00;99.90;;;;;;4981153;28;20158;-71
2022/01/31 02:59:49;;;;;;;27.77;5.95;;;2.00;99.90;;;;;;4975782;28;20042;-71
2022/01/31 03:02:15;;;;;;;24.45;6.15;;;2.10;99.90;;;;;;4974618;28;20100;-73
2022/01/31 03:04:41;;;;;;;19.95;5.47;;;2.10;99.90;;;;;;4981274;28;20490;-70
2022/01/31 03:07:06;;;;;;;22.98;6.00;;;2.10;99.90;;;;;;4979934;28;20038;-73
2022/01/31 03:09:32;;;;;;;19.88;5.78;;;2.10;99.90;;;;;;4977058;28;20022;-71
2022/01/31 03:11:58;;;;;;;25.80;6.35;;;2.00;99.90;;;;;;4979247;28;20034;-73
2022/01/31 03:14:23;;;;;;;30.38;6.32;;;2.00;99.90;;;;;;4983563;28;20379;-71
2022/01/31 03:16:49;;;;;;;26.23;6.28;;;2.00;99.90;;;;;;4972951;28;20045;-73
2022/01/31 03:19:16;;;;;;;27.35;5.70;;;2.00;99.90;;;;;;4982732;28;20479;-72
2022/01/31 03:21:43;;;;;;;24.55;6.05;;;2.00;99.90;;;;;;4984244;28;20090;-73
2022/01/31 03:24:10;;;;;;;23.73;5.55;;;2.00;99.90;;;;;;4987467;28;20518;-73
2022/01/31 03:26:37;;;;;;;28.75;5.82;;;2.00;99.90;;;;;;4975306;28;20410;-73
2022/01/31 03:29:04;;;;;;;19.88;5.10;;;2.00;99.90;;;;;;4988530;28;20546;-72
2022/01/31 03:31:30;;;;;;;21.70;5.10;;;2.00;99.90;;;;;;4982677;28;20034;-72
2022/01/31 03:33:56;;;;;;;24.05;4.97;;;2.00;99.90;;;;;;4987096;28;20719;-71
2022/01/31 03:36:22;;;;;;;23.90;4.93;;;2.00;99.90;;;;;;4990108;28;20038;-72
2022/01/31 03:38:48;;;;;;;20.38;5.40;;;2.00;99.90;;;;;;4982472;28;20542;-72
2022/01/31 03:41:17;;;;;;;29.02;5.68;;;2.10;99.90;;;;;;4985705;28;20050;-72
2022/01/31 03:43:43;;;;;;;20.48;5.38;;;2.10;99.90;;;;;;4988944;28;20499;-72
2022/01/31 03:46:09;;;;;;;21.00;5.32;;;2.10;99.90;;;;;;4984453;28;20073;-72
2022/01/31 03:48:35;;;;;;;28.52;5.65;;;2.10;99.90;;;;;;4980143;28;20162;-72
2022/01/31 03:51:02;;;;;;;19.40;5.78;;;2.10;99.90;;;;;;4985804;28;20482;-71
2022/01/31 03:53:28;;;;;;;16.60;4.68;;;2.20;99.90;;;;;;4977297;28;20535;-72
2022/01/31 03:55:54;;;;;;;20.30;4.85;;;2.20;99.90;;;;;;4973815;28;20073;-72
2022/01/31 03:58:20;;;;;;;20.45;5.10;;;2.20;99.90;;;;;;4985419;28;20113;-72
2022/01/31 04:00:46;;;;;;;19.30;5.07;;;2.20;99.90;;;;;;4985436;28;20034;-72
2022/01/31 04:03:12;;;;;;;23.58;6.05;;;2.20;99.90;;;;;;4981982;28;20033;-72
2022/01/31 04:05:38;;;;;;;19.63;5.07;;;2.20;99.90;;;;;;4982672;28;20038;-72
2022/01/31 04:08:08;;;;;;;16.33;4.03;;;2.20;99.90;;;;;;4982931;28;20045;-72
2022/01/31 04:10:35;;;;;;;18.48;4.55;;;2.20;99.90;;;;;;4981363;28;20039;-72
2022/01/31 04:13:01;;;;;;;18.45;4.95;;;2.20;99.90;;;;;;4980486;28;20172;-72
2022/01/31 04:15:26;;;;;;;22.55;4.75;;;2.20;99.90;;;;;;4985178;28;20113;-73
2022/01/31 04:17:52;;;;;;;18.55;4.50;;;2.30;99.90;;;;;;4988527;28;20173;-72
2022/01/31 04:20:19;;;;;;;16.00;4.68;;;2.30;99.90;;;;;;4980420;28;20070;-72
2022/01/31 04:22:59;;;;;;;21.02;5.10;;;2.30;99.90;;;;;;4975178;28;20034;-72
2022/01/31 04:25:42;;;;;;;18.52;4.72;;;2.30;99.90;;;;;;4985037;28;20073;-72
2022/01/31 04:28:24;;;;;;;17.48;4.57;;;2.30;99.90;;;;;;4983545;28;20110;-72
2022/01/31 04:31:12;;;;;;;15.55;4.53;;;2.30;99.90;;;;;;4978387;28;20051;-72
2022/01/31 04:33:38;;;;;;;27.27;5.03;;;2.30;99.90;;;;;;4979121;28;20038;-73
2022/01/31 04:36:05;;;;;;;22.73;4.72;;;2.40;99.90;;;;;;4985773;28;20030;-72
2022/01/31 04:38:30;;;;;;;18.98;4.82;;;2.40;99.90;;;;;;4982423;28;20271;-72
2022/01/31 04:40:56;;;;;;;21.73;4.65;;;2.40;99.90;;;;;;4980193;28;20037;-72
2022/01/31 04:43:22;;;;;;;24.83;5.63;;;2.40;99.90;;;;;;4983562;28;20033;-72
2022/01/31 04:45:48;;;;;;;18.67;5.03;;;2.30;99.90;;;;;;4986065;28;20027;-71
2022/01/31 04:48:15;;;;;;;22.73;5.00;;;2.20;99.90;;;;;;4983377;28;20754;-71
2022/01/31 04:50:42;;;;;;;22.05;5.60;;;2.10;99.90;;;;;;4982669;28;20030;-71
2022/01/31 04:53:07;;;;;;;19.15;5.00;;;2.00;99.90;;;;;;4982918;28;20506;-71
2022/01/31 04:55:34;;;;;;;24.13;5.97;;;2.00;99.90;;;;;;4988712;28;20046;-71
2022/01/31 04:58:00;;;;;;;21.92;5.88;;;1.90;99.90;;;;;;4982560;28;20041;-71
2022/01/31 05:00:25;;;;;;;22.25;5.82;;;1.90;99.90;;;;;;4981514;28;20035;-71
2022/01/31 05:02:51;;;;;;;24.17;6.65;;;1.90;99.90;;;;;;4979458;28;20097;-70
2022/01/31 05:05:17;;;;;;;25.63;5.90;;;1.80;99.90;;;;;;4981903;28;20023;-71
2022/01/31 05:07:42;;;;;;;30.15;7.28;;;1.80;99.90;;;;;;4974711;28;20042;-71
2022/01/31 05:10:09;;;;;;;26.92;6.85;;;1.70;99.90;;;;;;4973658;28;20030;-72
2022/01/31 05:12:34;;;;;;;25.67;7.22;;;1.70;99.90;;;;;;4981580;28;20045;-72
2022/01/31 05:15:00;;;;;;;28.70;7.25;;;1.70;99.90;;;;;;4972435;28;20030;-72
2022/01/31 05:17:26;;;;;;;23.25;7.25;;;1.60;99.90;;;;;;4975619;28;20049;-72
2022/01/31 05:19:51;;;;;;;31.02;7.57;;;1.60;99.90;;;;;;4984180;28;20077;-71
2022/01/31 05:22:17;;;;;;;24.60;7.43;;;1.60;99.90;;;;;;4975107;28;20034;-71
2022/01/31 05:24:43;;;;;;;29.23;7.47;;;1.50;99.90;;;;;;4982726;28;20398;-71
2022/01/31 05:27:08;;;;;;;20.95;6.95;;;1.50;99.90;;;;;;4977889;28;20054;-71
2022/01/31 05:29:34;;;;;;;29.65;9.10;;;1.50;99.90;;;;;;4290714;28;10000774;-71
2022/01/31 05:31:59;;;;;;;29.60;9.23;;;1.40;99.90;;;;;;4978405;28;20042;-71
2022/01/31 05:34:25;;;;;;;26.08;8.68;;;1.40;99.90;;;;;;4983896;28;20038;-71
2022/01/31 05:36:54;;;;;;;33.88;9.55;;;1.30;99.90;;;;;;4981169;28;20066;-71
2022/01/31 05:39:23;;;;;;;23.20;8.80;;;1.30;99.90;;;;;;4981475;28;20038;-70
2022/01/31 05:41:49;;;;;;;20.67;8.68;;;1.30;99.90;;;;;;4974714;28;20061;-71
2022/01/31 05:44:15;;;;;;;25.38;9.50;;;1.20;99.90;;;;;;4974473;28;20042;-71
2022/01/31 05:46:40;;;;;;;28.45;9.65;;;1.20;99.90;;;;;;4982161;28;20042;-72
2022/01/31 05:49:06;;;;;;;26.77;8.18;;;1.20;99.90;;;;;;4983923;28;20030;-72
2022/01/31 05:51:31;;;;;;;30.42;10.45;;;1.20;99.90;;;;;;4978958;28;20125;-71
2022/01/31 05:53:57;;;;;;;20.85;8.93;;;1.20;99.90;;;;;;4978102;28;20030;-72
2022/01/31 05:56:23;;;;;;;23.27;9.48;;;1.20;99.90;;;;;;4985955;28;20050;-72
2022/01/31 05:58:50;;;;;;;25.73;10.32;;;1.20;99.90;;;;;;4977226;28;20511;-72
2022/01/31 06:01:16;;;;;;;18.40;9.57;;;1.20;99.90;;;;;;4980778;28;20188;-71
2022/01/31 06:03:42;;;;;;;26.77;8.90;;;1.20;99.90;;;;;;4980093;28;20065;-72
2022/01/31 06:06:08;;;;;;;22.25;9.57;;;1.20;99.90;;;;;;4984589;28;20454;-72
2022/01/31 06:08:34;;;;;;;25.52;9.95;;;1.20;99.90;;;;;;4981291;28;20030;-72
2022/01/31 06:10:59;;;;;;;24.35;9.88;;;1.20;99.90;;;;;;4978468;28;20483;-72
2022/01/31 06:13:29;;;;;;;25.10;9.95;;;1.20;99.90;;;;;;4981301;28;20757;-72
2022/01/31 06:15:55;;;;;;;20.27;9.50;;;1.20;99.90;;;;;;4981624;28;20035;-72
2022/01/31 06:18:21;;;;;;;23.95;9.77;;;1.20;99.90;;;;;;4976836;28;20034;-72
2022/01/31 06:20:47;;;;;;;21.67;9.40;;;1.20;99.90;;;;;;4981964;28;20066;-72
2022/01/31 06:23:12;;;;;;;20.88;9.32;;;1.20;99.90;;;;;;4973181;28;20061;-72
2022/01/31 06:25:39;;;;;;;22.05;9.73;;;1.10;99.90;;;;;;4982493;28;20479;-71
2022/01/31 06:28:06;;;;;;;23.15;8.90;;;1.20;99.90;;;;;;4980014;28;20038;-72
2022/01/31 06:30:33;;;;;;;18.17;10.02;;;1.10;99.90;;;;;;4976549;28;20042;-72
2022/01/31 06:32:59;;;;;;;19.63;9.00;;;1.20;99.90;;;;;;4977143;28;20034;-72
2022/01/31 06:35:25;;;;;;;22.95;9.38;;;1.20;99.90;;;;;;4980245;28;20444;-72
2022/01/31 06:37:51;;;;;;;20.25;8.23;;;1.20;99.90;;;;;;4984374;28;20038;-72
2022/01/31 06:40:17;;;;;;;17.35;8.80;;;1.20;99.90;;;;;;4974540;28;20090;-72
2022/01/31 06:42:43;;;;;;;18.33;9.30;;;1.20;99.90;;;;;;4982545;28;20137;-72
2022/01/31 06:45:09;;;;;;;18.98;9.60;;;1.20;99.90;;;;;;4980403;28;20027;-72
2022/01/31 06:47:35;;;;;;;17.05;8.73;;;1.20;99.90;;;;;;4973932;28;20439;-72
2022/01/31 06:50:04;;;;;;;17.00;8.15;;;1.30;99.90;;;;;;4979932;28;20026;-72
2022/01/31 06:52:33;;;;;;;16.80;8.80;;;1.30;99.90;;;;;;4971966;28;20035;-72
2022/01/31 06:55:02;;;;;;;18.25;8.45;;;1.30;99.90;;;;;;4980130;28;20031;-72
2022/01/31 06:57:33;;;;;;;19.02;8.52;;;1.30;99.90;;;;;;4977567;28;20050;-72
2022/01/31 07:00:00;;;;;;;14.23;7.75;;;1.40;99.90;;;;;;4967175;28;20491;-72
2022/01/31 07:02:26;;;;;;;14.90;7.50;;;1.40;99.90;;;;;;4977697;28;20038;-72
2022/01/31 07:04:51;;;;;;;14.05;7.78;;;1.50;99.90;;;;;;4976499;28;20038;-73
2022/01/31 07:07:17;;;;;;;13.75;7.35;;;1.50;99.90;;;;;;4976371;28;20069;-74
2022/01/31 07:09:42;;;;;;;12.68;7.47;;;1.50;99.90;;;;;;4985996;28;20038;-72
2022/01/31 07:12:10;;;;;;;13.68;7.03;;;1.60;99.90;;;;;;4982249;28;20045;-73
2022/01/31 07:14:36;;;;;;;15.45;6.72;;;1.60;99.90;;;;;;4972982;28;20030;-72
2022/01/31 07:17:04;;;;;;;13.32;6.78;;;1.60;99.90;;;;;;4970827;28;20217;-72
2022/01/31 07:19:32;;;;;;;10.20;6.70;;;1.60;99.90;;;;;;4970999;28;20480;-71
2022/01/31 07:21:58;;;;;;;11.32;6.85;;;1.60;99.90;;;;;;4977528;28;20718;-72
2022/01/31 07:24:31;;;;;;;10.35;7.25;;;1.60;99.90;;;;;;4983899;28;20042;-71
2022/01/31 07:26:57;;;;;;;18.05;9.82;;;1.60;99.90;;;;;;4982033;28;20054;-71
2022/01/31 07:29:23;;;;;;;12.45;7.10;;;1.60;99.90;;;;;;4979496;28;20127;-71
2022/01/31 07:31:50;;;;;;;12.55;7.57;;;1.60;99.90;;;;;;4980892;28;20113;-72
2022/01/31 07:34:17;;;;;;;12.68;7.50;;;1.60;99.90;;;;;;4983702;28;20029;-72
2022/01/31 07:36:44;;;;;;;9.88;6.50;;;1.60;99.90;;;;;;4979297;28;20034;-72
2022/01/31 07:39:11;;;;;;;10.88;6.32;;;1.60;99.90;;;;;;4976768;28;20128;-72
2022/01/31 07:41:37;;;;;;;14.25;7.10;;;1.70;99.90;;;;;;4981992;28;20033;-72
2022/01/31 07:44:02;;;;;;;10.82;6.65;;;1.70;99.90;;;;;;4976231;28;20026;-72
2022/01/31 07:46:28;;;;;;;11.50;6.22;;;1.70;99.90;;;;;;4984594;28;20050;-72
2022/01/31 07:48:54;;;;;;;12.07;7.80;;;1.80;99.90;;;;;;4978010;28;20388;-73
2022/01/31 07:51:21;;;;;;;11.93;7.00;;;1.80;99.90;;;;;;4978814;28;20027;-73
2022/01/31 07:53:47;;;;;;;9.30;6.13;;;1.80;99.90;;;;;;4976916;28;20042;-73
2022/01/31 07:56:15;;;;;;;9.18;6.30;;;1.90;99.90;;;;;;4981883;28;20518;-73
2022/01/31 07:58:41;;;;;;;11.43;5.50;;;1.90;99.90;;;;;;4979508;28;20102;-73
2022/01/31 08:01:07;;;;;;;7.95;5.25;;;1.90;99.90;;;;;;4982167;28;20106;-72
2022/01/31 08:03:34;;;;;;;13.80;6.82;;;1.90;99.90;;;;;;4972498;28;20166;-80
2022/01/31 08:06:00;;;;;;;13.85;8.07;;;1.90;99.90;;;;;;4976766;28;20030;-78
2022/01/31 08:08:29;;;;;;;14.45;10.82;;;1.90;99.90;;;;;;4982833;28;20372;-79
2022/01/31 08:10:56;;;;;;;11.95;8.02;;;1.90;99.90;;;;;;4981378;28;20027;-78
2022/01/31 08:13:24;;;;;;;15.48;10.43;;;1.90;99.90;;;;;;4990107;28;20038;-79
2022/01/31 08:16:03;;;;;;;16.85;11.55;;;1.90;99.90;;;;;;4990240;28;20052;-80
2022/01/31 08:18:30;;;;;;;14.75;8.02;;;1.90;99.90;;;;;;4990127;28;20105;-80
2022/01/31 08:20:55;;;;;;;13.35;8.82;;;1.90;99.90;;;;;;4982389;28;20033;-79
2022/01/31 08:23:21;;;;;;;12.50;7.35;;;1.90;99.90;;;;;;4978905;28;20050;-79
2022/01/31 08:25:49;;;;;;;12.52;7.60;;;1.90;99.90;;;;;;4981337;28;20054;-79
2022/01/31 08:28:16;;;;;;;10.70;6.57;;;1.90;99.90;;;;;;4989111;28;20039;-81
2022/01/31 08:30:57;;;;;;;11.50;7.50;;;1.90;99.90;;;;;;4990471;28;20388;-81
2022/01/31 08:33:35;;;;;;;11.63;7.72;;;1.90;99.90;;;;;;4990798;28;20038;-80
2022/01/31 08:36:07;;;;;;;9.68;6.97;;;1.90;99.90;;;;;;4981185;28;20027;-82
2022/01/31 08:38:35;;;;;;;14.82;8.23;;;1.90;99.90;;;;;;4989742;28;20022;-83
2022/01/31 08:41:01;;;;;;;16.17;9.10;;;1.90;99.90;;;;;;4988171;28;20683;-82
2022/01/31 08:43:27;;;;;;;9.70;7.18;;;1.90;99.90;;;;;;4987778;28;20034;-82
2022/01/31 08:45:56;;;;;;;15.23;9.70;;;1.90;99.90;;;;;;4988139;28;20030;-81
2022/01/31 08:48:26;;;;;;;12.20;8.48;;;1.90;99.90;;;;;;4984754;28;20509;-82
2022/01/31 08:50:53;;;;;;;12.32;7.80;;;2.00;99.90;;;;;;4989839;28;20062;-81
2022/01/31 08:53:19;;;;;;;13.43;8.63;;;2.10;99.90;;;;;;4987823;28;20490;-81
2022/01/31 08:55:50;;;;;;;13.32;7.60;;;2.10;99.90;;;;;;4989347;28;20041;-81
2022/01/31 08:58:17;;;;;;;12.82;7.57;;;2.10;99.90;;;;;;4989586;28;20036;-81
2022/01/31 09:00:47;;;;;;;9.02;6.97;;;2.20;99.90;;;;;;4989922;28;20062;-81
2022/01/31 09:05:39;;;;;;;10.80;6.75;;;2.30;99.90;;;;;;4979894;28;20727;-81
2022/01/31 09:08:06;;;;;;;11.40;6.40;;;2.30;99.90;;;;;;4978731;28;20023;-81
2022/01/31 09:10:32;;;;;;;9.50;5.88;;;2.30;99.90;;;;;;4985013;28;20022;-80
2022/01/31 09:12:57;;;;;;;9.95;6.85;;;2.30;99.90;;;;;;4976306;28;20081;-80
2022/01/31 09:15:23;;;;;;;10.60;6.75;;;2.30;99.90;;;;;;4983046;28;20026;-80
2022/01/31 09:17:49;;;;;;;8.70;6.10;;;2.30;99.90;;;;;;4989887;28;20034;-81
2022/01/31 09:20:15;;;;;;;8.85;5.93;;;2.30;99.90;;;;;;4989387;28;20120;-80
2022/01/31 09:22:42;;;;;;;11.50;5.55;;;2.40;99.90;;;;;;4989487;28;20439;-80
2022/01/31 09:25:09;;;;;;;8.98;6.28;;;2.50;99.90;;;;;;4980401;28;20109;-80
2022/01/31 09:27:36;;;;;;;9.07;6.55;;;2.50;99.90;;;;;;4985373;28;20035;-80
2022/01/31 09:30:02;;;;;;;10.63;6.30;;;2.50;99.90;;;;;;4985630;28;20085;-80
2022/01/31 09:32:28;;;;;;;10.55;6.38;;;2.50;99.90;;;;;;4975062;28;20054;-80
2022/01/31 09:34:54;;;;;;;12.13;6.95;;;2.50;99.90;;;;;;4989990;28;20057;-81
2022/01/31 09:37:21;;;;;;;11.35;6.72;;;2.60;99.90;;;;;;4989081;28;20030;-80
2022/01/31 09:39:50;;;;;;;12.10;6.97;;;2.60;99.90;;;;;;4980514;28;20048;-80
2022/01/31 09:42:26;;;;;;;9.93;6.40;;;2.60;99.90;;;;;;4987466;28;20696;-79
2022/01/31 09:45:09;;;;;;;13.40;7.22;;;2.60;99.90;;;;;;4983319;28;20034;-80
2022/01/31 09:50:36;;;;;;;13.18;7.18;;;2.60;99.90;;;;;;4939836;29;20064;-80
2022/01/31 09:53:01;;;;;;;11.00;6.70;;;2.60;99.90;;;;;;4966217;28;20070;-79
2022/01/31 09:55:27;;;;;;;13.35;8.23;;;2.70;99.90;;;;;;4987078;28;20030;-79
2022/01/31 09:57:53;;;;;;;12.98;8.98;;;2.70;99.90;;;;;;4977247;28;20247;-79
2022/01/31 10:00:29;;;;;;;16.02;10.40;;;2.70;99.90;;;;;;4981326;28;20034;-80
2022/01/31 10:03:09;;;;;;;13.35;8.65;;;2.80;99.90;;;;;;4983991;28;20042;-80
2022/01/31 10:05:35;;;;;;;14.52;11.55;;;2.80;99.90;;;;;;4986144;28;20034;-80
2022/01/31 10:08:12;;;;;;;13.13;8.50;;;2.80;99.90;;;;;;4976518;28;20030;-80
2022/01/31 10:10:40;;;;;;;39.58;21.75;;;2.90;99.90;;;;;;4987772;28;20655;-80
2022/01/31 10:16:28;;;;;;;7.25;5.60;;;2.90;99.90;;;;;;4981175;28;20033;-80
2022/01/31 10:19:09;;;;;;;9.40;5.03;;;2.90;99.90;;;;;;4982792;28;20051;-80
2022/01/31 10:22:16;;;;;;;7.68;5.40;;;2.90;99.90;;;;;;4977606;28;20018;-80
2022/01/31 10:24:46;;;;;;;8.55;5.13;;;2.90;99.90;;;;;;4962791;28;20034;-81
2022/01/31 10:27:22;;;;;;;7.60;4.45;;;2.90;99.90;;;;;;4965392;28;20039;-80
2022/01/31 10:29:50;;;;;;;7.78;4.85;;;3.00;99.90;;;;;;4973902;28;20810;-80
2022/01/31 10:32:23;;;;;;;7.85;5.15;;;3.00;99.90;;;;;;4984836;28;20113;-81
2022/01/31 10:34:51;;;;;;;;;;;3.10;99.90;;;;;;4985720;28;20034;-80
2022/01/31 10:37:19;;;;;;;4.93;3.17;;;3.10;99.90;;;;;;4984359;28;19913;-80
2022/01/31 10:53:55;;;;;;;2.72;2.00;;;3.20;99.90;;;;;;4985485;28;20485;-80
2022/01/31 10:56:22;;;;;;;1.55;1.42;;;3.20;99.90;;;;;;4984729;28;20394;-80
2022/01/31 10:58:58;;;;;;;1.45;1.30;;;3.20;99.90;;;;;;4982898;28;20025;-80
2022/01/31 11:01:25;;;;;;;3.53;1.50;;;3.20;99.90;;;;;;4979149;28;20022;-80
2022/01/31 11:03:51;;;;;;;3.63;1.50;;;3.20;99.90;;;;;;4984761;28;20058;-81
2022/01/31 11:06:17;;;;;;;1.63;1.25;;;3.30;99.90;;;;;;4984466;28;20744;-80
2022/01/31 11:08:42;;;;;;;3.13;2.40;;;3.30;99.90;;;;;;4969390;28;20023;-79
2022/01/31 11:11:08;;;;;;;3.65;2.50;;;3.40;99.90;;;;;;4982835;28;20044;-79
2022/01/31 11:13:37;;;;;;;2.15;1.80;;;3.40;99.90;;;;;;4985818;28;20026;-79
2022/01/31 11:16:04;;;;;;;3.22;2.20;;;3.40;99.90;;;;;;4986249;28;20550;-80
2022/01/31 11:18:32;;;;;;;1.00;0.90;;;3.40;99.90;;;;;;4982551;28;20032;-80
2022/01/31 11:21:06;;;;;;;1.10;1.00;;;3.40;99.90;;;;;;4981099;28;20383;-80
2022/01/31 11:23:39;;;;;;;1.85;1.67;;;3.40;99.90;;;;;;4987471;28;20026;-80
2022/01/31 11:26:08;;;;;;;1.50;1.10;;;3.40;99.90;;;;;;4982172;28;20495;-80
2022/01/31 11:28:36;;;;;;;1.92;1.45;;;3.40;99.90;;;;;;4984143;28;20043;-79
2022/01/31 11:31:03;;;;;;;2.97;1.60;;;3.40;99.90;;;;;;4979247;28;20132;-80
2022/01/31 11:33:30;;;;;;;6.20;2.65;;;3.40;99.90;;;;;;4984514;28;20041;-79
2022/01/31 11:35:56;;;;;;;2.90;1.73;;;3.40;99.90;;;;;;4981419;28;20065;-80
2022/01/31 11:38:22;;;;;;;3.78;2.20;;;3.50;99.90;;;;;;4983903;28;20066;-80
2022/01/31 11:40:48;;;;;;;5.15;2.63;;;3.40;99.90;;;;;;4977705;28;20031;-76
2022/01/31 11:43:16;;;;;;;4.53;2.22;;;3.40;99.90;;;;;;4979883;28;20041;-76
2022/01/31 11:45:44;;;;;;;2.65;1.33;;;3.40;99.90;;;;;;4983518;28;20470;-76
2022/01/31 11:48:20;;;;;;;3.42;1.75;;;3.40;99.90;;;;;;4984836;28;20065;-75
2022/01/31 11:50:53;;;;;;;2.33;1.25;;;3.40;99.90;;;;;;4977901;28;20151;-76
2022/01/31 11:53:36;;;;;;;3.03;1.40;;;3.40;99.90;;;;;;4975761;28;20090;-75
2022/01/31 11:56:05;;;;;;;;;;;3.40;99.90;;;;;;4986311;28;20277;-76
2022/01/31 11:58:34;;;;;;;2.40;1.33;;;3.40;99.90;;;;;;4990117;28;20514;-75
2022/01/31 12:01:01;;;;;;;4.97;2.50;;;3.40;99.90;;;;;;4981438;28;20041;-75
2022/01/31 12:03:27;;;;;;;4.90;2.97;;;3.40;99.90;;;;;;4982060;28;20031;-75
2022/01/31 12:05:54;;;;;;;1.08;0.90;;;3.40;99.90;;;;;;4986632;28;20026;-76
2022/01/31 12:08:32;;;;;;;1.20;0.90;;;3.40;99.90;;;;;;4985414;28;20027;-75
2022/01/31 12:11:07;;;;;;;0.80;0.60;;;3.50;99.90;;;;;;4982523;28;20495;-75
2022/01/31 12:13:48;;;;;;;0.57;0.57;;;3.50;99.90;;;;;;4991343;28;20398;-75
2022/01/31 12:19:31;;;;;;;1.20;1.10;;;3.50;99.90;;;;;;4978925;28;20038;-78
2022/01/31 12:22:00;;;;;;;1.85;1.20;;;3.50;99.90;;;;;;4981434;28;20038;-79
2022/01/31 12:24:40;;;;;;;1.83;1.30;;;3.50;99.90;;;;;;4977569;28;20494;-79
2022/01/31 12:27:07;;;;;;;1.15;0.98;;;3.50;99.90;;;;;;4977490;28;20105;-83
2022/01/31 12:29:39;;;;;;;1.60;0.90;;;3.60;99.90;;;;;;4978061;28;20043;-75
2022/01/31 12:32:20;;;;;;;6.90;4.20;;;3.60;99.90;;;;;;4287893;28;10000708;-75
2022/01/31 12:34:52;;;;;;;2.35;1.50;;;3.60;99.90;;;;;;4982611;28;20057;-76
2022/01/31 12:37:34;;;;;;;1.60;1.20;;;3.60;99.90;;;;;;4979135;28;20660;-75
2022/01/31 12:40:27;;;;;;;5.00;2.65;;;3.60;99.90;;;;;;4981762;28;20454;-74
2022/01/31 12:45:39;;;;;;;2.78;2.30;;;3.70;99.90;;;;;;4985443;28;20046;-76
2022/01/31 12:48:08;;;;;;;5.90;5.30;;;3.70;99.90;;;;;;4974119;28;20116;-76
2022/01/31 12:50:35;;;;;;;9.90;8.68;;;3.70;99.90;;;;;;4979079;28;20443;-75
2022/01/31 12:53:05;;;;;;;1.98;1.50;;;3.80;99.90;;;;;;4976405;28;20692;-75
2022/01/31 12:55:34;;;;;;;2.25;1.63;;;3.90;99.90;;;;;;4978260;28;20037;-75
2022/01/31 12:58:00;;;;;;;3.28;2.53;;;3.90;99.90;;;;;;4974223;28;20034;-75
2022/01/31 13:00:39;;;;;;;3.03;1.65;;;3.90;99.90;;;;;;4983071;28;20034;-75
2022/01/31 13:03:05;;;;;;;4.35;2.30;;;3.90;99.90;;;;;;4982423;28;20031;-76
2022/01/31 13:05:32;;;;;;;4.85;2.72;;;4.00;99.90;;;;;;4986120;28;20033;-73
2022/01/31 13:07:58;;;;;;;4.80;3.17;;;3.90;99.90;;;;;;4975756;28;20220;-74
2022/01/31 13:10:24;;;;;;;2.78;2.15;;;4.00;99.90;;;;;;4977944;28;20969;-79
2022/01/31 13:13:02;;;;;;;4.20;2.72;;;3.90;99.90;;;;;;4980022;28;20018;-80
2022/01/31 13:15:29;;;;;;;4.18;2.70;;;3.90;99.90;;;;;;4979053;28;20054;-80
2022/01/31 13:18:08;;;;;;;3.03;1.95;;;4.00;99.90;;;;;;4985883;28;20038;-76
2022/01/31 13:20:35;;;;;;;2.92;1.80;;;3.90;99.90;;;;;;4980394;28;20038;-76
2022/01/31 13:23:02;;;;;;;2.47;1.65;;;4.00;99.90;;;;;;4982686;28;20149;-76